sensor_id;sensor_type;location;lat;lon;timestamp;pressure;altitude;pressure_sealevel;temperature;humidity
61474;BME280;53694;49.784;30.150;2022-10-16T00:00:29;100773.61;;;3.83;67.40
61474;BME280;53694;49.784;30.150;2022-10-16T00:01:31;100770.89;;;3.83;67.21
61474;BME280;53694;49.784;30.150;2022-10-16T00:02:33;100774.42;;;3.84;67.24
61474;BME280;53694;49.784;30.150;2022-10-16T00:03:34;100770.59;;;3.85;67.03
61474;BME280;53694;49.784;30.150;2022-10-16T00:04:36;100773.31;;;3.85;67.16
61474;BME280;53694;49.784;30.150;2022-10-16T00:05:40;100767.07;;;3.84;67.21
61474;BME280;53694;49.784;30.150;2022-10-16T00:06:42;100768.68;;;3.85;67.09
61474;BME280;53694;49.784;30.150;2022-10-16T00:07:44;100767.58;;;3.86;67.16
61474;BME280;53694;49.784;30.150;2022-10-16T00:08:46;100768.41;;;3.87;67.16
61474;BME280;53694;49.784;30.150;2022-10-16T00:09:48;100764.29;;;3.89;67.53
61474;BME280;53694;49.784;30.150;2022-10-16T00:10:50;100773.25;;;3.90;67.25
61474;BME280;53694;49.784;30.150;2022-10-16T00:11:51;100769.73;;;3.89;67.35
61474;BME280;53694;49.784;30.150;2022-10-16T00:12:53;100771.34;;;3.90;67.11
61474;BME280;53694;49.784;30.150;2022-10-16T00:13:57;100776.50;;;3.92;67.04
61474;BME280;53694;49.784;30.150;2022-10-16T00:14:59;100772.98;;;3.91;66.84
61474;BME280;53694;49.784;30.150;2022-10-16T00:16:01;100775.40;;;3.93;66.64
61474;BME280;53694;49.784;30.150;2022-10-16T00:17:02;100769.16;;;3.92;66.76
61474;BME280;53694;49.784;30.150;2022-10-16T00:18:05;100763.72;;;3.92;66.99
61474;BME280;53694;49.784;30.150;2022-10-16T00:19:06;100768.63;;;3.90;67.19
61474;BME280;53694;49.784;30.150;2022-10-16T00:20:08;100770.53;;;3.90;67.04
61474;BME280;53694;49.784;30.150;2022-10-16T00:21:20;100770.27;;;3.91;67.08
61474;BME280;53694;49.784;30.150;2022-10-16T00:22:17;100777.61;;;3.91;67.12
61474;BME280;53694;49.784;30.150;2022-10-16T00:23:20;100771.34;;;3.90;67.05
61474;BME280;53694;49.784;30.150;2022-10-16T00:24:21;100777.88;;;3.89;66.94
61474;BME280;53694;49.784;30.150;2022-10-16T00:25:23;100780.59;;;3.89;66.77
61474;BME280;53694;49.784;30.150;2022-10-16T00:26:25;100781.70;;;3.88;66.74
61474;BME280;53694;49.784;30.150;2022-10-16T00:27:27;100778.18;;;3.88;66.99
61474;BME280;53694;49.784;30.150;2022-10-16T00:28:30;100782.81;;;3.87;67.14
61474;BME280;53694;49.784;30.150;2022-10-16T00:29:31;100779.28;;;3.87;67.17
61474;BME280;53694;49.784;30.150;2022-10-16T00:30:33;100778.18;;;3.88;67.17
61474;BME280;53694;49.784;30.150;2022-10-16T00:31:35;100781.16;;;3.86;67.07
61474;BME280;53694;49.784;30.150;2022-10-16T00:32:36;100779.55;;;3.85;66.93
61474;BME280;53694;49.784;30.150;2022-10-16T00:33:40;100777.94;;;3.84;66.91
61474;BME280;53694;49.784;30.150;2022-10-16T00:34:42;100776.33;;;3.83;67.06
61474;BME280;53694;49.784;30.150;2022-10-16T00:35:44;100775.52;;;3.83;67.12
61474;BME280;53694;49.784;30.150;2022-10-16T00:36:46;100780.12;;;3.82;66.97
61474;BME280;53694;49.784;30.150;2022-10-16T00:37:48;100785.05;;;3.80;67.17
61474;BME280;53694;49.784;30.150;2022-10-16T00:38:53;100781.22;;;3.81;67.25
61474;BME280;53694;49.784;30.150;2022-10-16T00:39:55;100781.22;;;3.81;67.33
61474;BME280;53694;49.784;30.150;2022-10-16T00:40:57;100779.31;;;3.82;67.30
61474;BME280;53694;49.784;30.150;2022-10-16T00:41:58;100777.41;;;3.82;67.54
61474;BME280;53694;49.784;30.150;2022-10-16T00:43:00;100781.77;;;3.83;67.48
61474;BME280;53694;49.784;30.150;2022-10-16T00:44:04;100783.38;;;3.84;67.32
61474;BME280;53694;49.784;30.150;2022-10-16T00:45:08;100780.66;;;3.84;67.46
61474;BME280;53694;49.784;30.150;2022-10-16T00:46:23;100780.95;;;3.83;67.26
61474;BME280;53694;49.784;30.150;2022-10-16T00:47:40;100792.63;;;3.83;67.23
61474;BME280;53694;49.784;30.150;2022-10-16T00:51:13;100777.46;;;3.77;66.96
61474;BME280;53694;49.784;30.150;2022-10-16T00:52:16;100775.84;;;3.76;66.85
61474;BME280;53694;49.784;30.150;2022-10-16T00:53:18;100780.78;;;3.74;66.76
61474;BME280;53694;49.784;30.150;2022-10-16T00:54:30;100786.48;;;3.72;67.18
61474;BME280;53694;49.784;30.150;2022-10-16T00:55:28;100782.45;;;3.70;67.01
61474;BME280;53694;49.784;30.150;2022-10-16T00:56:31;100788.95;;;3.69;67.37
61474;BME280;53694;49.784;30.150;2022-10-16T00:57:33;100784.92;;;3.66;67.58
61474;BME280;53694;49.784;30.150;2022-10-16T00:58:35;100786.03;;;3.65;67.58
61474;BME280;53694;49.784;30.150;2022-10-16T00:59:39;100784.38;;;3.64;67.53
61474;BME280;53694;49.784;30.150;2022-10-16T01:00:41;100785.48;;;3.63;67.64
61474;BME280;53694;49.784;30.150;2022-10-16T01:01:42;100790.63;;;3.65;67.59
61474;BME280;53694;49.784;30.150;2022-10-16T01:02:44;100778.14;;;3.64;67.22
61474;BME280;53694;49.784;30.150;2022-10-16T01:03:45;100791.22;;;3.62;67.06
61474;BME280;53694;49.784;30.150;2022-10-16T01:04:52;100790.17;;;3.58;67.10
61474;BME280;53694;49.784;30.150;2022-10-16T01:08:32;100792.40;;;3.50;67.23
61474;BME280;53694;49.784;30.150;2022-10-16T01:10:59;100784.30;;;3.45;67.49
61474;BME280;53694;49.784;30.150;2022-10-16T01:12:16;100783.77;;;3.43;67.37
61474;BME280;53694;49.784;30.150;2022-10-16T01:13:24;100781.91;;;3.39;67.26
61474;BME280;53694;49.784;30.150;2022-10-16T01:15:53;100792.25;;;3.37;67.75
61474;BME280;53694;49.784;30.150;2022-10-16T01:17:06;100788.73;;;3.36;67.97
61474;BME280;53694;49.784;30.150;2022-10-16T01:18:11;100788.73;;;3.36;67.88
61474;BME280;53694;49.784;30.150;2022-10-16T01:19:18;100793.36;;;3.36;67.97
61474;BME280;53694;49.784;30.150;2022-10-16T01:20:35;100782.25;;;3.32;67.87
61474;BME280;53694;49.784;30.150;2022-10-16T01:21:36;100780.61;;;3.31;68.18
61474;BME280;53694;49.784;30.150;2022-10-16T01:25:11;100783.67;;;3.24;68.02
61474;BME280;53694;49.784;30.150;2022-10-16T01:26:36;100785.33;;;3.20;68.18
61474;BME280;53694;49.784;30.150;2022-10-16T01:27:35;100791.05;;;3.19;68.39
61474;BME280;53694;49.784;30.150;2022-10-16T01:31:17;100788.94;;;3.11;68.63
61474;BME280;53694;49.784;30.150;2022-10-16T01:32:37;100794.92;;;3.08;68.70
61474;BME280;53694;49.784;30.150;2022-10-16T01:33:47;100794.38;;;3.06;68.74
61474;BME280;53694;49.784;30.150;2022-10-16T01:34:53;100807.44;;;3.04;69.09
61474;BME280;53694;49.784;30.150;2022-10-16T01:35:58;100798.75;;;3.01;69.40
61474;BME280;53694;49.784;30.150;2022-10-16T01:37:07;100804.18;;;3.01;69.42
61474;BME280;53694;49.784;30.150;2022-10-16T01:38:18;100797.14;;;3.00;69.89
61474;BME280;53694;49.784;30.150;2022-10-16T01:39:23;100813.42;;;3.00;69.37
61474;BME280;53694;49.784;30.150;2022-10-16T01:40:27;100805.32;;;2.95;69.01
61474;BME280;53694;49.784;30.150;2022-10-16T01:41:42;100808.08;;;2.90;69.44
61474;BME280;53694;49.784;30.150;2022-10-16T01:42:50;100805.91;;;2.87;69.27
61474;BME280;53694;49.784;30.150;2022-10-16T01:43:57;100804.08;;;2.78;68.86
61474;BME280;53694;49.784;30.150;2022-10-16T01:45:01;100806.58;;;2.69;69.19
61474;BME280;53694;49.784;30.150;2022-10-16T01:46:04;100808.26;;;2.60;69.60
61474;BME280;53694;49.784;30.150;2022-10-16T01:47:09;100808.55;;;2.53;69.87
61474;BME280;53694;49.784;30.150;2022-10-16T01:48:14;100815.36;;;2.45;70.32
61474;BME280;53694;49.784;30.150;2022-10-16T01:49:17;100817.00;;;2.41;70.63
61474;BME280;53694;49.784;30.150;2022-10-16T01:50:20;100817.84;;;2.37;71.03
61474;BME280;53694;49.784;30.150;2022-10-16T01:51:23;100811.58;;;2.41;71.38
61474;BME280;53694;49.784;30.150;2022-10-16T01:52:26;100815.00;;;2.62;71.21
61474;BME280;53694;49.784;30.150;2022-10-16T01:53:30;100813.75;;;2.94;70.21
61474;BME280;53694;49.784;30.150;2022-10-16T01:54:35;100814.58;;;3.29;68.43
61474;BME280;53694;49.784;30.150;2022-10-16T01:55:40;100814.56;;;3.63;68.17
61474;BME280;53694;49.784;30.150;2022-10-16T01:56:43;100812.58;;;3.97;67.05
61474;BME280;53694;49.784;30.150;2022-10-16T01:57:47;100810.69;;;4.22;65.57
61474;BME280;53694;49.784;30.150;2022-10-16T01:59:01;100811.96;;;4.30;65.33
61474;BME280;53694;49.784;30.150;2022-10-16T02:00:07;100817.67;;;4.28;65.31
61474;BME280;53694;49.784;30.150;2022-10-16T02:01:11;100804.20;;;4.18;65.46
61474;BME280;53694;49.784;30.150;2022-10-16T02:02:16;100805.47;;;4.01;65.41
61474;BME280;53694;49.784;30.150;2022-10-16T02:03:19;100807.30;;;3.82;65.20
61474;BME280;53694;49.784;30.150;2022-10-16T02:04:24;100814.56;;;3.63;65.71
61474;BME280;53694;49.784;30.150;2022-10-16T02:05:50;100806.54;;;3.47;66.67
61474;BME280;53694;49.784;30.150;2022-10-16T02:06:48;100809.96;;;3.29;66.36
61474;BME280;53694;49.784;30.150;2022-10-16T02:07:50;100815.63;;;2.98;66.68
61474;BME280;53694;49.784;30.150;2022-10-16T02:08:53;100814.94;;;2.78;67.06
61474;BME280;53694;49.784;30.150;2022-10-16T02:09:55;100821.56;;;2.56;67.59
61474;BME280;53694;49.784;30.150;2022-10-16T02:10:58;100821.35;;;2.37;68.36
61474;BME280;53694;49.784;30.150;2022-10-16T02:12:17;100824.14;;;2.22;68.70
61474;BME280;53694;49.784;30.150;2022-10-16T02:14:44;100829.08;;;1.94;69.97
61474;BME280;53694;49.784;30.150;2022-10-16T02:15:46;100830.73;;;1.85;70.60
61474;BME280;53694;49.784;30.150;2022-10-16T02:16:48;100829.92;;;1.85;71.43
61474;BME280;53694;49.784;30.150;2022-10-16T02:17:49;100828.84;;;1.81;70.78
61474;BME280;53694;49.784;30.150;2022-10-16T02:18:51;100835.05;;;1.86;71.25
61474;BME280;53694;49.784;30.150;2022-10-16T02:19:54;100829.34;;;1.98;70.26
61474;BME280;53694;49.784;30.150;2022-10-16T02:21:16;100832.25;;;2.27;70.51
61474;BME280;53694;49.784;30.150;2022-10-16T02:23:01;100832.09;;;2.68;69.59
61474;BME280;53694;49.784;30.150;2022-10-16T02:24:04;100828.92;;;3.34;67.71
61474;BME280;53694;49.784;30.150;2022-10-16T02:25:10;100822.47;;;3.88;65.69
61474;BME280;53694;49.784;30.150;2022-10-16T02:26:15;100824.05;;;4.42;63.66
61474;BME280;53694;49.784;30.150;2022-10-16T02:27:20;100828.23;;;4.54;63.24
61474;BME280;53694;49.784;30.150;2022-10-16T02:28:25;100828.00;;;4.50;62.97
61474;BME280;53694;49.784;30.150;2022-10-16T02:29:27;100825.76;;;4.33;62.58
61474;BME280;53694;49.784;30.150;2022-10-16T02:30:48;100825.78;;;4.09;62.80
61474;BME280;53694;49.784;30.150;2022-10-16T02:31:53;100825.24;;;3.83;63.26
61474;BME280;53694;49.784;30.150;2022-10-16T02:32:56;100828.52;;;3.51;64.12
61474;BME280;53694;49.784;30.150;2022-10-16T02:34:01;100824.64;;;3.28;64.87
61474;BME280;53694;49.784;30.150;2022-10-16T02:35:05;100826.39;;;3.09;65.62
61474;BME280;53694;49.784;30.150;2022-10-16T02:36:09;100826.52;;;2.88;65.81
61474;BME280;53694;49.784;30.150;2022-10-16T02:37:11;100832.09;;;2.68;66.24
61474;BME280;53694;49.784;30.150;2022-10-16T02:38:14;100839.50;;;2.47;66.71
61474;BME280;53694;49.784;30.150;2022-10-16T02:39:18;100845.52;;;2.29;67.28
61474;BME280;53694;49.784;30.150;2022-10-16T02:40:21;100838.26;;;2.14;68.28
61474;BME280;53694;49.784;30.150;2022-10-16T02:41:23;100840.17;;;2.03;68.81
61474;BME280;53694;49.784;30.150;2022-10-16T02:42:32;100847.52;;;1.92;68.93
61474;BME280;53694;49.784;30.150;2022-10-16T02:43:33;100839.95;;;1.84;69.32
61474;BME280;53694;49.784;30.150;2022-10-16T02:44:34;100841.31;;;1.77;69.72
61474;BME280;53694;49.784;30.150;2022-10-16T02:45:37;100844.28;;;1.70;69.74
61474;BME280;53694;49.784;30.150;2022-10-16T02:46:39;100844.86;;;1.62;69.66
61474;BME280;53694;49.784;30.150;2022-10-16T02:47:40;100845.12;;;1.55;70.43
61474;BME280;53694;49.784;30.150;2022-10-16T02:48:42;100837.53;;;1.52;70.67
61474;BME280;53694;49.784;30.150;2022-10-16T02:49:43;100840.52;;;1.50;70.71
61474;BME280;53694;49.784;30.150;2022-10-16T02:50:45;100845.41;;;1.54;70.37
61474;BME280;53694;49.784;30.150;2022-10-16T02:51:46;100840.78;;;1.74;70.17
61474;BME280;53694;49.784;30.150;2022-10-16T02:52:48;100838.80;;;2.11;69.71
61474;BME280;53694;49.784;30.150;2022-10-16T02:53:49;100844.09;;;2.52;68.54
61474;BME280;53694;49.784;30.150;2022-10-16T02:54:51;100840.08;;;2.93;67.74
61474;BME280;53694;49.784;30.150;2022-10-16T02:55:52;100838.48;;;3.26;66.70
61474;BME280;53694;49.784;30.150;2022-10-16T02:56:54;100839.72;;;3.44;65.87
61474;BME280;53694;49.784;30.150;2022-10-16T02:57:55;100838.08;;;3.43;64.75
61474;BME280;53694;49.784;30.150;2022-10-16T02:58:57;100844.16;;;3.30;64.81
61474;BME280;53694;49.784;30.150;2022-10-16T02:59:59;100843.78;;;3.08;64.92
61474;BME280;53694;49.784;30.150;2022-10-16T03:01:00;100841.73;;;2.84;65.79
61474;BME280;53694;49.784;30.150;2022-10-16T03:02:02;100849.17;;;2.63;66.37
61474;BME280;53694;49.784;30.150;2022-10-16T03:03:03;100849.83;;;2.40;66.74
61474;BME280;53694;49.784;30.150;2022-10-16T03:04:05;100847.98;;;2.20;67.25
61474;BME280;53694;49.784;30.150;2022-10-16T03:05:07;100849.95;;;2.04;68.14
61474;BME280;53694;49.784;30.150;2022-10-16T03:06:10;100848.87;;;1.90;68.53
61474;BME280;53694;49.784;30.150;2022-10-16T03:07:12;100857.84;;;1.75;69.04
61474;BME280;53694;49.784;30.150;2022-10-16T03:08:13;100854.59;;;1.63;69.61
61474;BME280;53694;49.784;30.150;2022-10-16T03:09:15;100854.58;;;1.53;70.29
61474;BME280;53694;49.784;30.150;2022-10-16T03:10:17;100851.61;;;1.44;70.48
61474;BME280;53694;49.784;30.150;2022-10-16T03:11:18;100850.80;;;1.38;70.88
61474;BME280;53694;49.784;30.150;2022-10-16T03:12:20;100845.11;;;1.40;71.17
61474;BME280;53694;49.784;30.150;2022-10-16T03:13:21;100858.93;;;1.59;70.71
61474;BME280;53694;49.784;30.150;2022-10-16T03:14:23;100860.24;;;1.87;70.19
61474;BME280;53694;49.784;30.150;2022-10-16T03:15:25;100860.70;;;2.24;69.44
61474;BME280;53694;49.784;30.150;2022-10-16T03:16:26;100846.42;;;2.73;68.53
61474;BME280;53694;49.784;30.150;2022-10-16T03:17:28;100850.73;;;3.24;66.48
61474;BME280;53694;49.784;30.150;2022-10-16T03:18:29;100850.17;;;3.61;65.56
61474;BME280;53694;49.784;30.150;2022-10-16T03:19:31;100861.64;;;3.82;64.47
61474;BME280;53694;49.784;30.150;2022-10-16T03:20:33;100861.89;;;3.86;63.94
61474;BME280;53694;49.784;30.150;2022-10-16T03:21:35;100857.36;;;3.76;63.66
61474;BME280;53694;49.784;30.150;2022-10-16T03:22:36;100858.59;;;3.60;63.61
61474;BME280;53694;49.784;30.150;2022-10-16T03:23:37;100859.55;;;3.40;64.07
61474;BME280;53694;49.784;30.150;2022-10-16T03:24:39;100863.25;;;3.20;64.43
61474;BME280;53694;49.784;30.150;2022-10-16T03:25:40;100866.08;;;2.99;64.84
61474;BME280;53694;49.784;30.150;2022-10-16T03:26:42;100873.23;;;2.80;65.04
61474;BME280;53694;49.784;30.150;2022-10-16T03:27:44;100870.89;;;2.58;65.22
61474;BME280;53694;49.784;30.150;2022-10-16T03:28:45;100871.80;;;2.38;65.66
61474;BME280;53694;49.784;30.150;2022-10-16T03:29:46;100870.47;;;2.20;66.78
61474;BME280;53694;49.784;30.150;2022-10-16T03:30:48;100868.63;;;2.06;67.20
61474;BME280;53694;49.784;30.150;2022-10-16T03:31:50;100864.58;;;1.93;68.04
61474;BME280;53694;49.784;30.150;2022-10-16T03:32:51;100865.95;;;1.85;68.45
61474;BME280;53694;49.784;30.150;2022-10-16T03:33:52;100867.58;;;1.76;68.43
61474;BME280;53694;49.784;30.150;2022-10-16T03:42:32;100870.77;;;1.02;71.08
61474;BME280;53694;49.784;30.150;2022-10-16T03:43:34;100875.08;;;0.87;71.88
61474;BME280;53694;49.784;30.150;2022-10-16T03:44:35;100874.56;;;1.00;71.80
61474;BME280;53694;49.784;30.150;2022-10-16T03:45:37;100865.43;;;1.32;71.37
61474;BME280;53694;49.784;30.150;2022-10-16T03:46:39;100871.37;;;1.80;71.00
61474;BME280;53694;49.784;30.150;2022-10-16T03:47:40;100869.92;;;2.34;69.49
61474;BME280;53694;49.784;30.150;2022-10-16T03:48:42;100869.38;;;2.91;67.95
61474;BME280;53694;49.784;30.150;2022-10-16T03:49:43;100869.00;;;3.47;66.25
61474;BME280;53694;49.784;30.150;2022-10-16T03:50:45;100858.61;;;3.89;64.65
61474;BME280;53694;49.784;30.150;2022-10-16T03:51:47;100868.98;;;4.11;63.46
61474;BME280;53694;49.784;30.150;2022-10-16T03:52:48;100865.16;;;4.12;62.89
61474;BME280;53694;49.784;30.150;2022-10-16T03:53:49;100859.33;;;3.99;62.48
61474;BME280;53694;49.784;30.150;2022-10-16T03:54:51;100862.75;;;3.81;62.38
61474;BME280;53694;49.784;30.150;2022-10-16T03:55:53;100857.53;;;3.56;62.46
61474;BME280;53694;49.784;30.150;2022-10-16T03:56:54;100857.77;;;3.25;62.91
61474;BME280;53694;49.784;30.150;2022-10-16T03:57:56;100863.41;;;2.94;63.49
61474;BME280;53694;49.784;30.150;2022-10-16T03:58:57;100868.98;;;2.64;64.47
61474;BME280;53694;49.784;30.150;2022-10-16T03:59:59;100870.16;;;2.37;65.25
61474;BME280;53694;49.784;30.150;2022-10-16T04:01:00;100866.17;;;2.14;65.91
61474;BME280;53694;49.784;30.150;2022-10-16T04:02:02;100873.23;;;1.95;66.82
61474;BME280;53694;49.784;30.150;2022-10-16T04:03:03;100863.52;;;1.73;67.17
61474;BME280;53694;49.784;30.150;2022-10-16T04:04:05;100867.06;;;1.54;67.79
61474;BME280;53694;49.784;30.150;2022-10-16T04:05:07;100872.73;;;1.37;68.75
61474;BME280;53694;49.784;30.150;2022-10-16T04:06:09;100868.34;;;1.05;69.44
61474;BME280;53694;49.784;30.150;2022-10-16T04:07:10;100868.34;;;1.05;69.44
61474;BME280;53694;49.784;30.150;2022-10-16T04:08:12;100873.99;;;0.93;69.86
61474;BME280;53694;49.784;30.150;2022-10-16T04:09:13;100870.74;;;0.81;70.31
61474;BME280;53694;49.784;30.150;2022-10-16T04:10:15;100870.16;;;0.69;70.85
61474;BME280;53694;49.784;30.150;2022-10-16T04:11:17;100876.59;;;0.58;71.33
61474;BME280;53694;49.784;30.150;2022-10-16T04:12:18;100874.70;;;0.58;71.69
61474;BME280;53694;49.784;30.150;2022-10-16T04:13:20;100870.17;;;0.74;71.70
61474;BME280;53694;49.784;30.150;2022-10-16T04:14:21;100873.23;;;1.08;71.53
61474;BME280;53694;49.784;30.150;2022-10-16T04:15:24;100866.50;;;1.52;71.04
61474;BME280;53694;49.784;30.150;2022-10-16T04:16:26;100871.89;;;1.97;69.88
61474;BME280;53694;49.784;30.150;2022-10-16T04:17:27;100873.94;;;2.41;68.40
61474;BME280;53694;49.784;30.150;2022-10-16T04:18:29;100876.23;;;2.79;66.93
61474;BME280;53694;49.784;30.150;2022-10-16T04:19:30;100878.52;;;3.06;65.68
61474;BME280;53694;49.784;30.150;2022-10-16T04:20:33;100876.31;;;3.13;64.81
61474;BME280;53694;49.784;30.150;2022-10-16T04:21:35;100878.26;;;3.07;64.77
61474;BME280;53694;49.784;30.150;2022-10-16T04:22:36;100886.77;;;2.90;64.83
61474;BME280;53694;49.784;30.150;2022-10-16T04:23:38;100886.33;;;2.68;65.10
61474;BME280;53694;49.784;30.150;2022-10-16T04:24:40;100889.38;;;2.46;65.62
61474;BME280;53694;49.784;30.150;2022-10-16T04:25:41;100883.20;;;2.25;66.57
61474;BME280;53694;49.784;30.150;2022-10-16T04:26:43;100885.69;;;2.06;66.92
61474;BME280;53694;49.784;30.150;2022-10-16T04:27:44;100887.89;;;1.89;67.51
61474;BME280;53694;49.784;30.150;2022-10-16T04:28:46;100883.84;;;1.71;67.60
61474;BME280;53694;49.784;30.150;2022-10-16T04:29:47;100884.37;;;1.53;68.11
61474;BME280;53694;49.784;30.150;2022-10-16T04:30:49;100891.13;;;1.35;68.70
61474;BME280;53694;49.784;30.150;2022-10-16T04:31:50;100888.14;;;1.21;68.99
61474;BME280;53694;49.784;30.150;2022-10-16T04:32:52;100889.99;;;1.10;69.72
61474;BME280;53694;49.784;30.150;2022-10-16T04:33:54;100889.17;;;0.99;70.14
61474;BME280;53694;49.784;30.150;2022-10-16T04:34:55;100892.39;;;0.91;70.06
61474;BME280;53694;49.784;30.150;2022-10-16T04:35:58;100893.99;;;0.82;70.39
61474;BME280;53694;49.784;30.150;2022-10-16T04:37:00;100901.83;;;0.84;70.82
61474;BME280;53694;49.784;30.150;2022-10-16T04:38:02;100901.61;;;1.00;70.22
61474;BME280;53694;49.784;30.150;2022-10-16T04:39:03;100899.77;;;1.27;69.57
61474;BME280;53694;49.784;30.150;2022-10-16T04:40:06;100901.16;;;1.60;69.16
61474;BME280;53694;49.784;30.150;2022-10-16T04:41:08;100898.70;;;1.99;68.73
61474;BME280;53694;49.784;30.150;2022-10-16T04:42:09;100901.09;;;2.31;67.60
61474;BME280;53694;49.784;30.150;2022-10-16T04:43:11;100909.19;;;2.46;66.61
61474;BME280;53694;49.784;30.150;2022-10-16T04:44:12;100905.39;;;2.47;66.40
61474;BME280;53694;49.784;30.150;2022-10-16T04:45:14;100904.86;;;2.40;66.37
61474;BME280;53694;49.784;30.150;2022-10-16T04:46:16;100909.23;;;2.26;66.33
61474;BME280;53694;49.784;30.150;2022-10-16T04:47:17;100916.86;;;2.09;66.57
61474;BME280;53694;49.784;30.150;2022-10-16T04:48:18;100911.98;;;1.90;67.29
61474;BME280;53694;49.784;30.150;2022-10-16T04:49:20;100910.92;;;1.71;67.60
61474;BME280;53694;49.784;30.150;2022-10-16T04:50:22;100913.90;;;1.49;67.96
61474;BME280;53694;49.784;30.150;2022-10-16T04:51:23;100912.25;;;1.28;68.71
61474;BME280;53694;49.784;30.150;2022-10-16T04:52:25;100919.51;;;1.12;69.47
61474;BME280;53694;49.784;30.150;2022-10-16T04:53:26;100916.75;;;0.96;69.89
61474;BME280;53694;49.784;30.150;2022-10-16T04:54:28;100922.14;;;0.86;70.80
61474;BME280;53694;49.784;30.150;2022-10-16T04:55:29;100920.22;;;0.77;70.97
61474;BME280;53694;49.784;30.150;2022-10-16T04:56:31;100923.15;;;0.70;71.19
61474;BME280;53694;49.784;30.150;2022-10-16T04:57:32;100918.02;;;0.68;71.48
61474;BME280;53694;49.784;30.150;2022-10-16T04:58:34;100922.14;;;0.86;71.50
61474;BME280;53694;49.784;30.150;2022-10-16T04:59:36;100926.03;;;1.26;71.46
61474;BME280;53694;49.784;30.150;2022-10-16T05:00:37;100923.38;;;1.77;70.51
61474;BME280;53694;49.784;30.150;2022-10-16T05:01:39;100933.34;;;2.33;68.90
61474;BME280;53694;49.784;30.150;2022-10-16T05:02:40;100931.82;;;2.86;67.56
61474;BME280;53694;49.784;30.150;2022-10-16T05:03:42;100938.34;;;3.35;66.01
61474;BME280;53694;49.784;30.150;2022-10-16T05:04:43;100934.59;;;3.70;64.46
61474;BME280;53694;49.784;30.150;2022-10-16T05:05:45;100927.91;;;3.86;63.52
61474;BME280;53694;49.784;30.150;2022-10-16T05:06:48;100942.05;;;3.88;63.02
61474;BME280;53694;49.784;30.150;2022-10-16T05:07:49;100936.70;;;3.78;62.91
61474;BME280;53694;49.784;30.150;2022-10-16T05:08:51;100950.39;;;3.63;63.05
61474;BME280;53694;49.784;30.150;2022-10-16T05:09:52;100948.36;;;3.44;63.38
61474;BME280;53694;49.784;30.150;2022-10-16T05:10:54;100956.32;;;3.25;63.81
61474;BME280;53694;49.784;30.150;2022-10-16T05:11:55;100957.23;;;3.06;64.18
61474;BME280;53694;49.784;30.150;2022-10-16T05:12:57;100950.53;;;2.88;64.69
61474;BME280;53694;49.784;30.150;2022-10-16T05:13:59;100955.21;;;2.67;64.98
61474;BME280;53694;49.784;30.150;2022-10-16T05:15:00;100946.06;;;2.47;65.48
61474;BME280;53694;49.784;30.150;2022-10-16T05:16:02;100952.59;;;2.31;65.95
61474;BME280;53694;49.784;30.150;2022-10-16T05:17:03;100956.97;;;2.17;66.54
61474;BME280;53694;49.784;30.150;2022-10-16T05:18:05;100952.07;;;2.04;66.97
61474;BME280;53694;49.784;30.150;2022-10-16T05:19:07;100956.14;;;1.91;67.44
61474;BME280;53694;49.784;30.150;2022-10-16T05:20:09;100954.78;;;1.78;67.88
61474;BME280;53694;49.784;30.150;2022-10-16T05:21:11;100959.39;;;1.67;68.63
61474;BME280;53694;49.784;30.150;2022-10-16T05:22:12;100955.32;;;1.60;69.56
61474;BME280;53694;49.784;30.150;2022-10-16T05:23:14;100958.56;;;1.57;69.92
61474;BME280;53694;49.784;30.150;2022-10-16T05:24:16;100960.73;;;1.55;70.22
61474;BME280;53694;49.784;30.150;2022-10-16T05:25:17;100964.53;;;1.54;70.44
61474;BME280;53694;49.784;30.150;2022-10-16T05:26:19;100968.30;;;1.53;70.53
61474;BME280;53694;49.784;30.150;2022-10-16T05:27:20;100970.48;;;1.61;70.73
61474;BME280;53694;49.784;30.150;2022-10-16T05:28:22;100972.13;;;1.82;70.36
61474;BME280;53694;49.784;30.150;2022-10-16T05:29:24;100963.20;;;2.17;69.93
61474;BME280;53694;49.784;30.150;2022-10-16T05:30:25;100967.72;;;2.58;68.77
61474;BME280;53694;49.784;30.150;2022-10-16T05:31:27;100969.73;;;3.01;67.72
61474;BME280;53694;49.784;30.150;2022-10-16T05:32:28;100977.17;;;3.35;66.58
61474;BME280;53694;49.784;30.150;2022-10-16T05:33:30;100973.23;;;3.57;66.00
61474;BME280;53694;49.784;30.150;2022-10-16T05:34:31;100975.36;;;3.65;65.52
61474;BME280;53694;49.784;30.150;2022-10-16T05:35:33;100970.52;;;3.62;65.29
61474;BME280;53694;49.784;30.150;2022-10-16T05:36:35;100973.02;;;3.53;65.28
61474;BME280;53694;49.784;30.150;2022-10-16T05:37:37;100981.49;;;3.41;65.59
61474;BME280;53694;49.784;30.150;2022-10-16T05:38:38;100984.53;;;3.30;65.92
61474;BME280;53694;49.784;30.150;2022-10-16T05:39:39;100982.14;;;3.18;66.21
61474;BME280;53694;49.784;30.150;2022-10-16T05:40:41;100979.78;;;3.06;66.55
61474;BME280;53694;49.784;30.150;2022-10-16T05:41:43;100987.13;;;2.95;66.98
61474;BME280;53694;49.784;30.150;2022-10-16T05:42:45;100989.90;;;2.85;67.21
61474;BME280;53694;49.784;30.150;2022-10-16T05:43:47;100997.53;;;2.73;67.62
61474;BME280;53694;49.784;30.150;2022-10-16T05:44:49;100994.82;;;2.63;68.18
61474;BME280;53694;49.784;30.150;2022-10-16T05:45:58;100998.09;;;2.55;68.49
61474;BME280;53694;49.784;30.150;2022-10-16T05:47:00;100996.22;;;2.45;68.81
61474;BME280;53694;49.784;30.150;2022-10-16T05:48:01;101005.71;;;2.37;69.47
61474;BME280;53694;49.784;30.150;2022-10-16T05:49:03;101000.30;;;2.32;69.77
61474;BME280;53694;49.784;30.150;2022-10-16T05:50:06;101008.16;;;2.29;69.80
61474;BME280;53694;49.784;30.150;2022-10-16T05:51:10;101003.56;;;2.24;70.04
61474;BME280;53694;49.784;30.150;2022-10-16T05:52:12;101002.22;;;2.21;70.56